Time;durP1;ratioP1;P1;durP2;ratioP2;P2;SDS_P1;SDS_P2;PMS_P1;PMS_P2;Temp;Humidity;BMP_temperature;BMP_pressure;BME280_temperature;BME280_humidity;BME280_pressure;Samples;Min_cycle;Max_cycle;Signal;HPM_P1;HPM_P2
2023/02/28 00:00:28;;;;;;;4.87;2.73;;;-0.20;99.90;;;;;;4881026;29;20624;-85
2023/02/28 00:02:53;;;;;;;4.00;2.70;;;-0.20;99.90;;;;;;4882575;29;20222;-85
2023/02/28 00:05:22;;;;;;;3.77;2.57;;;-0.20;99.90;;;;;;4866014;29;20700;-85
2023/02/28 00:07:48;;;;;;;4.60;2.57;;;-0.30;99.90;;;;;;4865964;29;20187;-85
2023/02/28 00:10:22;;;;;;;4.53;2.43;;;-0.30;99.90;;;;;;4853321;29;20695;-86
2023/02/28 00:12:49;;;;;;;3.63;2.70;;;-0.30;99.90;;;;;;4847208;29;20185;-85
2023/02/28 00:15:15;;;;;;;4.17;2.70;;;-0.30;99.90;;;;;;4847449;29;20308;-85
2023/02/28 00:17:41;;;;;;;4.53;3.23;;;-0.40;99.90;;;;;;4847424;29;20352;-85
2023/02/28 00:20:09;;;;;;;4.00;2.80;;;-0.40;99.90;;;;;;4846257;29;20688;-85
2023/02/28 00:22:36;;;;;;;4.87;3.17;;;-0.40;99.90;;;;;;4847180;29;20224;-85
2023/02/28 00:25:03;;;;;;;4.20;3.17;;;-0.40;99.90;;;;;;4847351;29;20575;-85
2023/02/28 00:27:29;;;;;;;5.80;3.23;;;-0.40;99.90;;;;;;5304842;23;20334;-85
2023/02/28 00:29:55;;;;;;;6.87;3.67;;;-0.40;99.90;;;;;;4880370;29;20190;-84
2023/02/28 00:32:20;;;;;;;5.67;3.20;;;-0.30;99.90;;;;;;4899955;29;20183;-84
2023/02/28 00:34:46;;;;;;;5.57;3.60;;;-0.40;99.90;;;;;;4900364;29;20618;-83
2023/02/28 00:37:12;;;;;;;6.07;3.73;;;-0.50;99.90;;;;;;4900238;29;20202;-84
2023/02/28 00:39:38;;;;;;;6.13;3.60;;;-0.40;99.90;;;;;;4899993;29;20188;-84
2023/02/28 00:42:05;;;;;;;4.47;3.70;;;-0.40;99.90;;;;;;4899585;29;20211;-84
2023/02/28 00:44:40;;;;;;;5.57;3.83;;;-0.40;99.90;;;;;;4884040;29;20225;-84
2023/02/28 00:47:34;;;;;;;5.57;3.80;;;-0.50;99.90;;;;;;4883962;29;20179;-83
2023/02/28 00:50:14;;;;;;;7.17;4.00;;;-0.40;99.90;;;;;;4884018;29;20219;-85
2023/02/28 00:52:44;;;;;;;8.40;3.73;;;-0.50;99.90;;;;;;4900790;29;20179;-83
2023/02/28 00:55:10;;;;;;;5.53;3.50;;;-0.70;99.90;;;;;;4900998;29;20183;-84
2023/02/28 00:57:36;;;;;;;6.97;4.10;;;-0.80;99.90;;;;;;4883491;29;20531;-84
2023/02/28 01:00:03;;;;;;;15.90;8.17;;;-0.70;99.90;;;;;;4883630;29;20193;-84
2023/02/28 01:02:28;;;;;;;7.33;4.77;;;-0.70;99.90;;;;;;4884077;29;20211;-84
2023/02/28 01:04:54;;;;;;;6.67;4.43;;;-0.70;99.90;;;;;;4900868;29;20183;-84
2023/02/28 01:07:23;;;;;;;5.23;3.60;;;-0.70;99.90;;;;;;4883788;29;20520;-84
2023/02/28 01:09:49;;;;;;;6.23;4.00;;;-0.70;99.90;;;;;;4883814;29;20190;-84
2023/02/28 01:12:15;;;;;;;7.00;3.40;;;-0.80;99.90;;;;;;4900832;29;20187;-84
2023/02/28 01:14:41;;;;;;;6.97;3.80;;;-0.90;99.90;;;;;;4900407;29;20179;-84
2023/02/28 01:17:06;;;;;;;5.63;3.83;;;-0.80;99.90;;;;;;4883935;29;20534;-84
2023/02/28 01:19:33;;;;;;;5.43;3.60;;;-0.80;99.90;;;;;;4883694;29;20212;-84
2023/02/28 01:22:02;;;;;;;6.60;3.57;;;-0.80;99.90;;;;;;4883713;29;20215;-84
2023/02/28 01:24:28;;;;;;;6.63;3.40;;;-0.90;99.90;;;;;;4884178;29;20183;-84
2023/02/28 01:26:53;;;;;;;5.80;3.60;;;-0.90;99.90;;;;;;4883478;29;20206;-84
2023/02/28 01:29:19;;;;;;;5.50;3.37;;;-0.90;99.90;;;;;;4883552;29;20512;-85
2023/02/28 01:31:44;;;;;;;5.83;3.10;;;-0.90;99.90;;;;;;4884034;29;20183;-84
2023/02/28 01:34:10;;;;;;;5.77;3.40;;;-1.00;99.90;;;;;;4883975;29;20274;-85
2023/02/28 01:36:36;;;;;;;4.80;3.20;;;-1.00;99.90;;;;;;4883924;29;20187;-86
2023/02/28 01:39:03;;;;;;;7.03;3.30;;;-1.10;99.90;;;;;;4883887;29;20577;-86
2023/02/28 01:41:32;;;;;;;6.53;3.40;;;-1.10;99.90;;;;;;4883463;29;20219;-86
2023/02/28 01:44:03;;;;;;;4.80;3.00;;;-1.10;99.90;;;;;;4883712;29;20190;-86
2023/02/28 01:46:31;;;;;;;4.00;2.83;;;-1.00;99.90;;;;;;4883942;29;20239;-84
2023/02/28 01:49:06;;;;;;;5.47;3.17;;;-0.90;99.90;;;;;;4900412;29;20179;-85
2023/02/28 01:51:50;;;;;;;4.53;3.37;;;-1.00;99.90;;;;;;4883286;29;20179;-85
2023/02/28 01:54:29;;;;;;;4.43;3.37;;;-0.90;99.90;;;;;;4883787;29;20175;-85
2023/02/28 01:57:07;;;;;;;4.70;3.07;;;-0.90;99.90;;;;;;4883654;29;20623;-85
2023/02/28 01:59:46;;;;;;;4.13;3.10;;;-1.00;99.90;;;;;;4883211;29;20262;-85
2023/02/28 02:02:13;;;;;;;6.53;3.93;;;-1.20;99.90;;;;;;4883490;29;20210;-85
2023/02/28 02:04:49;;;;;;;6.37;3.90;;;-1.20;99.90;;;;;;4883892;29;20218;-85
2023/02/28 02:07:16;;;;;;;6.53;4.00;;;-1.20;99.90;;;;;;4883651;29;20187;-85
2023/02/28 02:09:42;;;;;;;6.93;3.73;;;-1.20;99.90;;;;;;4883255;29;20270;-85
2023/02/28 02:12:34;;;;;;;6.27;3.20;;;-1.30;99.90;;;;;;4883584;29;20278;-85
2023/02/28 02:15:26;;;;;;;6.57;3.20;;;-1.30;99.90;;;;;;4882957;29;20511;-85
2023/02/28 02:17:57;;;;;;;4.47;2.70;;;-1.20;99.90;;;;;;4883676;29;20615;-85
2023/02/28 02:20:45;;;;;;;4.57;2.43;;;-1.20;99.90;;;;;;4882699;29;20243;-86
2023/02/28 02:23:35;;;;;;;5.67;2.87;;;-1.10;99.90;;;;;;4899483;29;20246;-86
2023/02/28 02:26:30;;;;;;;4.07;2.67;;;-1.10;99.90;;;;;;4900242;29;20231;-85
2023/02/28 02:29:30;;;;;;;4.23;2.53;;;-1.20;99.90;;;;;;4882928;29;20238;-85
2023/02/28 02:32:19;;;;;;;4.73;2.37;;;-1.20;99.90;;;;;;4883280;29;20190;-85
2023/02/28 02:34:58;;;;;;;4.77;2.53;;;-1.20;99.90;;;;;;4883446;29;20183;-85
2023/02/28 02:37:42;;;;;;;6.57;3.03;;;-1.20;99.90;;;;;;4883592;29;20203;-86
2023/02/28 02:40:51;;;;;;;4.90;3.10;;;-1.20;99.90;;;;;;4883369;29;20179;-85
2023/02/28 02:43:22;;;;;;;5.20;2.50;;;-1.30;99.90;;;;;;4860741;29;20264;-86
2023/02/28 02:46:02;;;;;;;3.43;2.50;;;-1.20;99.90;;;;;;4899868;29;20190;-86
2023/02/28 02:48:32;;;;;;;5.33;2.27;;;-1.20;99.90;;;;;;4883243;29;20183;-85
2023/02/28 02:51:32;;;;;;;6.43;2.80;;;-1.30;99.90;;;;;;4882955;29;20264;-85
2023/02/28 02:54:07;;;;;;;4.10;2.80;;;-1.30;99.90;;;;;;4853863;29;20223;-85
2023/02/28 02:56:34;;;;;;;4.33;2.37;;;-1.40;99.90;;;;;;4882248;29;20269;-85
2023/02/28 02:59:03;;;;;;;3.67;2.80;;;-1.40;99.90;;;;;;4882589;29;20183;-86
2023/02/28 03:01:31;;;;;;;6.10;2.60;;;-1.40;99.90;;;;;;4883051;29;20210;-86
2023/02/28 03:04:01;;;;;;;5.00;2.70;;;-1.30;99.90;;;;;;4883017;29;20206;-86
2023/02/28 03:06:27;;;;;;;6.60;2.50;;;-1.30;99.90;;;;;;4883022;29;20207;-86
2023/02/28 03:08:53;;;;;;;5.67;3.20;;;-1.30;99.90;;;;;;4883021;29;20230;-86
2023/02/28 03:11:20;;;;;;;5.57;2.73;;;-1.30;99.90;;;;;;4879681;29;20247;-86
2023/02/28 03:14:18;;;;;;;4.77;2.80;;;-1.30;99.90;;;;;;4864449;29;20172;-86
2023/02/28 03:17:21;;;;;;;3.43;2.60;;;-1.40;99.90;;;;;;4867550;29;20192;-86
2023/02/28 03:20:34;;;;;;;4.10;2.70;;;-1.50;99.90;;;;;;4864210;29;20219;-86
2023/02/28 03:23:17;;;;;;;4.53;2.83;;;-1.60;99.90;;;;;;4864207;29;20647;-85
2023/02/28 03:25:55;;;;;;;5.43;2.60;;;-1.60;99.90;;;;;;4879880;29;20187;-86
2023/02/28 03:28:51;;;;;;;4.80;2.67;;;-1.60;99.90;;;;;;4864267;29;20239;-85
2023/02/28 03:31:36;;;;;;;4.47;2.60;;;-1.70;99.90;;;;;;4880795;29;20172;-86
2023/02/28 03:34:04;;;;;;;3.77;2.57;;;-1.60;99.90;;;;;;4879731;29;20184;-86
2023/02/28 03:36:43;;;;;;;3.83;2.73;;;-1.50;99.90;;;;;;4864150;29;20221;-86
2023/02/28 03:39:13;;;;;;;4.10;2.80;;;-1.50;99.90;;;;;;4879688;29;20180;-86
2023/02/28 03:41:51;;;;;;;5.27;2.97;;;-1.60;99.90;;;;;;4893396;29;20243;-86
2023/02/28 03:44:32;;;;;;;6.03;2.80;;;-1.60;99.90;;;;;;4882417;29;20217;-85
2023/02/28 03:47:08;;;;;;;5.23;2.63;;;-1.70;99.90;;;;;;4882567;29;20185;-86
2023/02/28 03:49:43;;;;;;;4.80;2.80;;;-1.70;99.90;;;;;;4898882;29;20591;-85
2023/02/28 03:52:09;;;;;;;3.83;2.80;;;-1.60;99.90;;;;;;4878996;29;20198;-86
2023/02/28 03:54:43;;;;;;;4.80;2.97;;;-1.60;99.90;;;;;;4866052;29;20227;-86
2023/02/28 03:57:25;;;;;;;5.23;2.80;;;-1.60;99.90;;;;;;4867772;29;20271;-85
2023/02/28 04:00:13;;;;;;;5.70;2.73;;;-1.60;99.90;;;;;;4867335;29;20176;-87
2023/02/28 04:02:39;;;;;;;4.83;3.00;;;-1.70;99.90;;;;;;4867154;29;20211;-87
2023/02/28 04:05:06;;;;;;;5.13;3.10;;;-1.80;99.90;;;;;;4867564;29;20279;-85
2023/02/28 04:07:32;;;;;;;6.27;2.80;;;-1.80;99.90;;;;;;4867134;29;20207;-86
2023/02/28 04:10:04;;;;;;;4.87;3.13;;;-1.80;99.90;;;;;;4867011;29;20207;-86
2023/02/28 04:12:33;;;;;;;4.43;2.97;;;-1.80;99.90;;;;;;4883902;29;20171;-86
2023/02/28 04:14:58;;;;;;;5.40;3.00;;;-1.80;99.90;;;;;;4866998;29;20562;-85
2023/02/28 04:17:24;;;;;;;3.37;2.70;;;-1.80;99.90;;;;;;4867008;29;20220;-87
2023/02/28 04:19:50;;;;;;;4.40;2.70;;;-1.80;99.90;;;;;;4883429;29;20180;-85
2023/02/28 04:22:17;;;;;;;5.93;3.00;;;-1.90;99.90;;;;;;4883560;29;20204;-86
2023/02/28 04:24:43;;;;;;;6.37;3.07;;;-2.00;99.90;;;;;;4883690;29;20252;-86
2023/02/28 04:27:09;;;;;;;4.80;2.90;;;-2.10;99.90;;;;;;4866765;29;20270;-87
2023/02/28 04:29:35;;;;;;;4.70;3.00;;;-2.10;99.90;;;;;;4882073;29;20180;-85
2023/02/28 04:32:02;;;;;;;7.00;2.93;;;-2.20;99.90;;;;;;4882254;29;20191;-86
2023/02/28 04:34:31;;;;;;;8.57;3.80;;;-2.20;99.90;;;;;;4866713;29;20619;-85
2023/02/28 04:36:57;;;;;;;6.93;3.53;;;-2.30;99.90;;;;;;4866845;29;20176;-86
2023/02/28 04:39:24;;;;;;;4.27;3.20;;;-2.30;99.90;;;;;;4866747;29;20277;-86
2023/02/28 04:41:50;;;;;;;4.33;3.10;;;-2.20;99.90;;;;;;4891521;29;20231;-85
2023/02/28 04:44:16;;;;;;;6.97;3.10;;;-2.20;99.90;;;;;;4884479;29;20176;-86
2023/02/28 04:46:42;;;;;;;4.80;3.00;;;-2.10;99.90;;;;;;4885123;29;20190;-85
2023/02/28 04:49:10;;;;;;;5.10;3.07;;;-2.10;99.90;;;;;;4885102;29;20190;-85
2023/02/28 04:51:36;;;;;;;6.33;3.53;;;-2.00;99.90;;;;;;4884802;29;20185;-85
2023/02/28 04:54:02;;;;;;;7.90;4.00;;;-2.00;99.90;;;;;;4885211;29;20175;-85
2023/02/28 04:56:27;;;;;;;4.73;3.20;;;-2.00;99.90;;;;;;4884913;29;20527;-85
2023/02/28 04:58:54;;;;;;;6.13;3.73;;;-2.10;99.90;;;;;;4884913;29;20187;-86
2023/02/28 05:01:29;;;;;;;4.40;2.90;;;-2.10;99.90;;;;;;4884447;29;20222;-85
2023/02/28 05:03:56;;;;;;;4.37;3.20;;;-2.10;99.90;;;;;;4885022;29;20192;-87
2023/02/28 05:06:24;;;;;;;6.43;3.67;;;-2.20;99.90;;;;;;4884411;29;20183;-86
2023/02/28 05:08:50;;;;;;;4.83;3.33;;;-2.20;99.90;;;;;;4885249;29;20282;-86
2023/02/28 05:11:33;;;;;;;4.00;3.17;;;-2.10;99.90;;;;;;4884745;29;20194;-86
2023/02/28 05:13:59;;;;;;;5.33;3.27;;;-2.10;99.90;;;;;;4884649;29;20174;-86
2023/02/28 05:16:24;;;;;;;8.00;3.50;;;-2.00;99.90;;;;;;4884667;29;20991;-86
2023/02/28 05:18:50;;;;;;;5.17;3.23;;;-2.00;99.90;;;;;;4884713;29;20218;-86
2023/02/28 05:21:31;;;;;;;3.77;2.87;;;-2.00;99.90;;;;;;4884063;29;20218;-86
2023/02/28 05:24:00;;;;;;;4.63;2.93;;;-2.10;99.90;;;;;;4884336;29;20179;-85
2023/02/28 05:26:27;;;;;;;6.77;3.43;;;-2.10;99.90;;;;;;4900033;29;20616;-86
2023/02/28 05:28:53;;;;;;;5.47;3.87;;;-2.10;99.90;;;;;;4884373;29;20829;-85
2023/02/28 05:31:21;;;;;;;7.07;3.70;;;-2.10;99.90;;;;;;4884054;29;20523;-85
2023/02/28 05:33:46;;;;;;;6.43;3.60;;;-2.20;99.90;;;;;;4884234;29;20178;-87
2023/02/28 05:36:12;;;;;;;6.07;3.50;;;-2.20;99.90;;;;;;4900631;29;20245;-86
2023/02/28 05:38:38;;;;;;;4.40;3.23;;;-2.20;99.90;;;;;;4883866;29;20525;-86
2023/02/28 05:41:08;;;;;;;3.83;3.43;;;-2.20;99.90;;;;;;4883983;29;20619;-84
2023/02/28 05:43:35;;;;;;;6.43;3.43;;;-2.20;99.90;;;;;;4883908;29;20183;-85
2023/02/28 05:46:06;;;;;;;5.37;3.63;;;-2.20;99.90;;;;;;4884267;29;20186;-85
2023/02/28 05:48:33;;;;;;;5.20;3.27;;;-2.30;99.90;;;;;;4900700;29;20220;-86
2023/02/28 05:51:02;;;;;;;4.03;3.07;;;-2.30;99.90;;;;;;4883782;29;20179;-84
2023/02/28 05:53:43;;;;;;;6.47;3.33;;;-2.40;99.90;;;;;;4883615;29;20188;-84
2023/02/28 05:56:08;;;;;;;3.90;2.87;;;-2.50;99.90;;;;;;4883390;29;20183;-85
2023/02/28 05:58:34;;;;;;;5.17;3.07;;;-2.60;99.90;;;;;;4900276;29;20187;-85
2023/02/28 06:01:18;;;;;;;10.20;3.17;;;-2.60;99.90;;;;;;4883627;29;20182;-85
2023/02/28 06:03:44;;;;;;;7.23;2.97;;;-2.60;99.90;;;;;;4883894;29;20197;-86
2023/02/28 06:06:09;;;;;;;4.60;2.90;;;-2.50;99.90;;;;;;4883975;29;20186;-85
2023/02/28 06:08:35;;;;;;;5.90;3.03;;;-2.50;99.90;;;;;;4883828;29;20202;-86
2023/02/28 06:11:03;;;;;;;6.07;3.43;;;-2.50;99.90;;;;;;4883757;29;20187;-84
2023/02/28 06:13:29;;;;;;;4.07;2.87;;;-2.40;99.90;;;;;;4883324;29;20642;-85
2023/02/28 06:15:55;;;;;;;4.77;3.10;;;-2.50;99.90;;;;;;4883403;29;20281;-86
2023/02/28 06:18:20;;;;;;;4.40;2.80;;;-2.50;99.90;;;;;;4899398;29;20523;-86
2023/02/28 06:20:54;;;;;;;5.17;3.17;;;-2.60;99.90;;;;;;4883080;29;20194;-85
2023/02/28 06:23:21;;;;;;;4.60;2.90;;;-2.70;99.90;;;;;;4883307;29;20217;-86
2023/02/28 06:25:47;;;;;;;5.13;3.10;;;-2.80;99.90;;;;;;4900193;29;20202;-85
2023/02/28 06:28:13;;;;;;;5.33;3.10;;;-2.80;99.90;;;;;;4882981;29;20273;-85
2023/02/28 06:30:39;;;;;;;5.43;3.00;;;-2.80;99.90;;;;;;4883317;29;20241;-86
2023/02/28 06:33:05;;;;;;;5.47;2.93;;;-2.80;99.90;;;;;;4883323;29;20185;-86
2023/02/28 06:35:31;;;;;;;5.73;3.30;;;-2.80;99.90;;;;;;4899932;29;20205;-86
2023/02/28 06:37:57;;;;;;;6.77;2.80;;;-2.80;99.90;;;;;;4883380;29;20222;-86
2023/02/28 06:40:22;;;;;;;5.03;2.97;;;-2.80;99.90;;;;;;4882898;29;20185;-84
2023/02/28 06:42:49;;;;;;;4.77;3.07;;;-2.80;99.90;;;;;;4882780;29;20221;-83
2023/02/28 06:45:15;;;;;;;5.53;3.20;;;-2.80;99.90;;;;;;4883163;29;20182;-84
2023/02/28 06:47:41;;;;;;;6.10;3.43;;;-2.60;99.90;;;;;;4883088;29;20193;-84
2023/02/28 06:50:09;;;;;;;4.53;2.83;;;-2.50;99.90;;;;;;4899249;29;20278;-84
2023/02/28 06:52:39;;;;;;;5.03;3.43;;;-2.50;99.90;;;;;;4882908;29;20190;-84
2023/02/28 06:55:07;;;;;;;7.57;3.60;;;-2.50;99.90;;;;;;4881509;29;20242;-85
2023/02/28 06:57:35;;;;;;;4.17;3.00;;;-2.50;99.90;;;;;;4881673;29;20210;-84
2023/02/28 07:00:04;;;;;;;4.77;3.03;;;-2.60;99.90;;;;;;4881641;29;20284;-83
2023/02/28 07:02:31;;;;;;;5.70;3.30;;;-2.60;99.90;;;;;;4882356;29;20222;-84
2023/02/28 07:04:57;;;;;;;6.33;3.50;;;-2.60;99.90;;;;;;4881456;29;20216;-84
2023/02/28 07:07:23;;;;;;;6.83;3.60;;;-2.60;99.90;;;;;;4882272;29;20183;-86
2023/02/28 07:09:49;;;;;;;5.97;2.70;;;-2.50;99.90;;;;;;4882056;29;20207;-85
2023/02/28 07:12:15;;;;;;;8.60;3.97;;;-2.50;99.90;;;;;;4881998;29;20266;-85
2023/02/28 07:14:41;;;;;;;27.23;16.73;;;-2.40;99.90;;;;;;4882161;29;20187;-85
2023/02/28 07:17:08;;;;;;;10.37;6.60;;;-2.30;99.90;;;;;;4882215;29;20187;-85
2023/02/28 07:19:34;;;;;;;8.00;4.67;;;-2.20;99.90;;;;;;4881827;29;20193;-85
2023/02/28 07:22:02;;;;;;;10.97;4.03;;;-2.20;99.90;;;;;;4881680;29;20622;-85
2023/02/28 07:24:29;;;;;;;6.27;3.40;;;-2.20;99.90;;;;;;4881632;29;20182;-85
2023/02/28 07:26:55;;;;;;;8.70;3.50;;;-2.20;99.90;;;;;;4881919;29;20191;-85
2023/02/28 07:29:21;;;;;;;5.93;3.43;;;-2.20;99.90;;;;;;4883799;29;20295;-85
2023/02/28 07:31:47;;;;;;;7.73;3.80;;;-2.10;99.90;;;;;;4902480;29;20186;-84
2023/02/28 07:34:14;;;;;;;6.47;3.60;;;-2.00;99.90;;;;;;4901891;29;20226;-84
2023/02/28 07:36:42;;;;;;;5.53;3.60;;;-2.00;99.90;;;;;;4884244;29;20214;-85
2023/02/28 07:39:09;;;;;;;5.60;3.37;;;-1.90;99.90;;;;;;4886036;29;20191;-85
2023/02/28 07:41:37;;;;;;;4.83;3.53;;;-1.90;99.90;;;;;;4885702;29;20218;-85
2023/02/28 07:44:04;;;;;;;5.87;3.60;;;-1.80;99.90;;;;;;4885090;29;20201;-84
2023/02/28 07:46:34;;;;;;;5.33;3.13;;;-1.70;99.90;;;;;;4885881;29;20272;-84
2023/02/28 07:49:02;;;;;;;5.27;3.37;;;-1.60;99.90;;;;;;4884949;29;20586;-84
2023/02/28 07:51:31;;;;;;;5.50;3.47;;;-1.40;99.90;;;;;;4901904;29;20187;-84
2023/02/28 07:53:57;;;;;;;7.50;3.73;;;-1.30;99.90;;;;;;4885408;29;20634;-85
2023/02/28 07:56:23;;;;;;;7.87;3.43;;;-1.20;99.90;;;;;;4884471;29;20420;-84
2023/02/28 07:58:49;;;;;;;5.17;2.93;;;-1.10;99.90;;;;;;4885068;29;20179;-84
2023/02/28 08:01:14;;;;;;;6.40;3.27;;;-0.90;99.90;;;;;;4884429;29;21021;-84
2023/02/28 08:03:41;;;;;;;4.67;3.17;;;-0.80;99.90;;;;;;4885112;29;20195;-84
2023/02/28 08:06:15;;;;;;;11.17;3.23;;;-0.70;99.90;;;;;;4885199;29;20194;-83
2023/02/28 08:08:41;;;;;;;4.20;2.97;;;-0.60;99.90;;;;;;4884629;29;20610;-83
2023/02/28 08:11:07;;;;;;;5.70;2.70;;;-0.50;99.90;;;;;;4891443;29;20188;-82
2023/02/28 08:13:33;;;;;;;4.40;2.90;;;-0.30;99.90;;;;;;4882643;29;20251;-83
2023/02/28 08:16:01;;;;;;;3.90;2.60;;;-0.20;99.90;;;;;;4866311;29;20168;-84
2023/02/28 08:18:27;;;;;;;5.07;2.60;;;-0.10;99.90;;;;;;4882742;29;20180;-82
2023/02/28 08:20:53;;;;;;;6.27;3.17;;;0.00;99.90;;;;;;4865745;29;20191;-83
2023/02/28 08:23:19;;;;;;;4.57;2.73;;;0.10;99.90;;;;;;4882372;29;20292;-83
2023/02/28 08:25:44;;;;;;;4.53;2.40;;;0.20;99.90;;;;;;4865871;29;20608;-83
2023/02/28 08:28:10;;;;;;;18.83;8.13;;;0.30;99.90;;;;;;4878044;29;20333;-82
2023/02/28 08:30:36;;;;;;;14.07;10.73;;;0.50;99.90;;;;;;4882406;29;20184;-82
2023/02/28 08:33:02;;;;;;;7.73;2.57;;;0.70;99.90;;;;;;4865924;29;20574;-84
2023/02/28 08:35:27;;;;;;;6.13;3.03;;;0.80;99.90;;;;;;4865763;29;20172;-83
2023/02/28 08:37:53;;;;;;;5.67;2.40;;;0.90;99.90;;;;;;4882404;29;20199;-82
2023/02/28 08:40:19;;;;;;;6.43;2.53;;;1.00;99.90;;;;;;4881237;29;20190;-83
2023/02/28 08:42:52;;;;;;;3.63;2.43;;;1.20;99.90;;;;;;4865396;29;20682;-82
2023/02/28 08:45:22;;;;;;;4.27;2.20;;;1.30;99.90;;;;;;4882352;29;20221;-82
2023/02/28 08:48:13;;;;;;;6.83;1.93;;;1.40;99.90;;;;;;4866092;29;20639;-82
2023/02/28 08:50:39;;;;;;;4.67;2.50;;;1.50;99.90;;;;;;4873067;29;20192;-82
2023/02/28 08:53:36;;;;;;;6.13;2.40;;;1.50;99.90;;;;;;4889594;29;20235;-83
2023/02/28 08:56:08;;;;;;;3.67;2.30;;;1.60;99.90;;;;;;4895342;29;20271;-82
2023/02/28 08:58:34;;;;;;;4.13;2.23;;;1.70;99.90;;;;;;4900494;29;20548;-81
2023/02/28 09:01:07;;;;;;;3.70;2.53;;;1.70;99.90;;;;;;4882476;29;20198;-81
2023/02/28 09:03:33;;;;;;;5.10;2.27;;;1.80;99.90;;;;;;4900444;29;20206;-82
2023/02/28 09:06:01;;;;;;;4.37;1.93;;;1.90;99.90;;;;;;4899409;29;20647;-81
2023/02/28 09:08:30;;;;;;;4.63;2.50;;;2.00;99.90;;;;;;4883706;29;20197;-82
2023/02/28 09:10:57;;;;;;;7.00;3.03;;;2.00;99.90;;;;;;4895599;29;20646;-81
2023/02/28 09:13:27;;;;;;;6.40;2.73;;;2.10;99.90;;;;;;4877553;29;20199;-82
2023/02/28 09:15:59;;;;;;;4.57;2.70;;;2.20;99.90;;;;;;4881428;29;20168;-82
2023/02/28 09:18:26;;;;;;;5.30;2.97;;;2.20;99.90;;;;;;4879895;29;20196;-82
2023/02/28 09:20:52;;;;;;;5.63;2.80;;;2.30;99.90;;;;;;4880302;29;20184;-82
2023/02/28 09:23:19;;;;;;;6.97;3.50;;;2.30;99.90;;;;;;4881291;29;20208;-82
2023/02/28 09:25:54;;;;;;;7.83;2.80;;;2.40;99.90;;;;;;4881171;29;20187;-83
2023/02/28 09:28:23;;;;;;;8.87;3.97;;;2.50;99.90;;;;;;4899869;29;20251;-82
2023/02/28 09:30:53;;;;;;;7.67;3.47;;;2.50;99.90;;;;;;4883063;29;20183;-82
2023/02/28 09:33:22;;;;;;;8.47;3.53;;;2.60;99.90;;;;;;4883301;29;20183;-82
2023/02/28 09:35:49;;;;;;;5.83;3.17;;;2.70;99.90;;;;;;4879129;29;20192;-83
2023/02/28 09:38:16;;;;;;;6.50;3.47;;;2.80;99.90;;;;;;4881353;29;20195;-82
2023/02/28 09:40:57;;;;;;;9.07;3.00;;;2.80;99.90;;;;;;4879905;29;20667;-82
2023/02/28 09:43:28;;;;;;;7.73;3.37;;;2.90;99.90;;;;;;4880434;29;20726;-81
2023/02/28 09:46:17;;;;;;;6.00;3.30;;;2.90;99.90;;;;;;4883233;29;20608;-81
2023/02/28 09:48:47;;;;;;;6.23;2.73;;;3.00;99.90;;;;;;4885787;29;20253;-82
2023/02/28 09:51:31;;;;;;;5.30;3.20;;;3.10;99.90;;;;;;4882365;29;20210;-81
2023/02/28 09:53:58;;;;;;;5.77;3.20;;;3.10;99.90;;;;;;4883021;29;20180;-82
2023/02/28 09:56:39;;;;;;;7.87;3.33;;;3.10;99.90;;;;;;4899771;29;20186;-82
2023/02/28 09:59:39;;;;;;;8.97;3.10;;;3.30;99.90;;;;;;4882522;29;20183;-82
2023/02/28 10:02:36;;;;;;;5.03;2.57;;;3.30;99.90;;;;;;4899501;29;20680;-81
2023/02/28 10:05:12;;;;;;;12.23;5.37;;;3.30;99.90;;;;;;4882645;29;20187;-82
2023/02/28 10:07:57;;;;;;;54.77;25.97;;;3.40;99.90;;;;;;4899431;29;20171;-82
2023/02/28 10:10:38;;;;;;;4.47;2.80;;;3.40;99.90;;;;;;4882548;29;20575;-84
2023/02/28 10:13:25;;;;;;;5.33;2.83;;;3.50;99.90;;;;;;4882213;29;20615;-81
2023/02/28 10:15:59;;;;;;;6.27;2.97;;;3.50;99.90;;;;;;4863193;29;20247;-82
2023/02/28 10:18:30;;;;;;;8.47;3.30;;;3.60;99.90;;;;;;4899236;29;20210;-82
2023/02/28 10:20:56;;;;;;;7.40;2.60;;;3.80;99.90;;;;;;4899189;29;20204;-82
2023/02/28 10:23:27;;;;;;;7.37;3.13;;;3.80;99.90;;;;;;4899115;29;20222;-80
2023/02/28 10:25:59;;;;;;;7.07;2.70;;;3.90;99.90;;;;;;4882373;29;20179;-81
2023/02/28 10:28:28;;;;;;;5.50;2.57;;;3.90;99.90;;;;;;4881829;29;20239;-80
2023/02/28 10:30:54;;;;;;;5.57;2.70;;;4.00;99.90;;;;;;4882165;29;20543;-80
2023/02/28 10:33:24;;;;;;;4.53;2.87;;;4.00;99.90;;;;;;4898955;29;20180;-80
2023/02/28 10:35:51;;;;;;;5.50;2.70;;;4.00;99.90;;;;;;4898959;29;20205;-81
2023/02/28 10:38:28;;;;;;;5.47;2.53;;;4.00;99.90;;;;;;4899048;29;20167;-80
2023/02/28 10:41:15;;;;;;;4.63;2.50;;;4.00;99.90;;;;;;4898775;29;20631;-80
2023/02/28 10:43:43;;;;;;;5.73;2.30;;;4.10;99.90;;;;;;4898640;29;20179;-81
2023/02/28 10:46:08;;;;;;;4.27;2.50;;;4.20;99.90;;;;;;4882064;29;20207;-80
2023/02/28 10:48:44;;;;;;;5.43;2.70;;;4.20;99.90;;;;;;4898748;29;20223;-79
2023/02/28 10:51:15;;;;;;;4.93;2.07;;;4.20;99.90;;;;;;4898225;29;20572;-80
2023/02/28 10:53:48;;;;;;;4.73;1.83;;;4.20;99.90;;;;;;4886633;29;20266;-79
2023/02/28 10:56:21;;;;;;;6.80;2.30;;;4.20;99.90;;;;;;4898830;29;20239;-79
2023/02/28 10:59:00;;;;;;;4.93;2.40;;;4.10;99.90;;;;;;4898470;29;20171;-79
2023/02/28 11:01:39;;;;;;;6.47;2.17;;;4.20;99.90;;;;;;4901445;29;20662;-78
2023/02/28 11:04:41;;;;;;;6.33;2.27;;;4.30;99.90;;;;;;4898186;29;20222;-80
2023/02/28 11:07:22;;;;;;;37.63;18.43;;;4.30;99.90;;;;;;4878733;29;20186;-80
2023/02/28 11:09:56;;;;;;;5.37;2.10;;;4.50;99.90;;;;;;4873583;29;20631;-80
2023/02/28 11:12:25;;;;;;;3.57;1.70;;;4.70;99.90;;;;;;4898195;29;20174;-78
2023/02/28 11:15:17;;;;;;;2.40;1.63;;;4.80;99.90;;;;;;4898594;29;20187;-78
2023/02/28 11:17:43;;;;;;;4.60;1.40;;;5.10;99.90;;;;;;4898684;29;20246;-78
2023/02/28 11:20:20;;;;;;;3.07;1.50;;;5.10;99.80;;;;;;4898251;29;20744;-78
2023/02/28 11:22:46;;;;;;;4.17;1.77;;;5.10;99.00;;;;;;4898318;29;20307;-78
2023/02/28 11:25:33;;;;;;;4.47;1.90;;;5.00;99.40;;;;;;4898379;29;20204;-78
2023/02/28 11:28:02;;;;;;;2.23;1.47;;;4.90;99.80;;;;;;4897370;29;20239;-78
2023/02/28 11:30:41;;;;;;;2.57;1.40;;;4.90;99.90;;;;;;4898218;29;20206;-79
2023/02/28 11:33:25;;;;;;;2.50;1.60;;;4.90;99.10;;;;;;4881457;29;20233;-78
2023/02/28 11:35:55;;;;;;;3.37;2.07;;;4.90;99.40;;;;;;4898405;29;20239;-79
2023/02/28 11:38:20;;;;;;;2.80;1.60;;;4.70;99.20;;;;;;4898416;29;20176;-78
2023/02/28 11:41:03;;;;;;;4.00;1.67;;;4.70;99.50;;;;;;4897971;29;20186;-78
2023/02/28 11:44:06;;;;;;;3.77;1.47;;;4.60;99.90;;;;;;4897861;29;20667;-78
2023/02/28 11:46:45;;;;;;;3.27;1.67;;;4.70;99.40;;;;;;4898347;29;20623;-78
2023/02/28 11:49:31;;;;;;;2.03;1.60;;;4.60;99.20;;;;;;4898120;29;20167;-78
2023/02/28 11:52:08;;;;;;;2.90;1.53;;;4.40;99.60;;;;;;4897446;29;20267;-78
2023/02/28 11:54:57;;;;;;;4.47;1.60;;;4.40;99.70;;;;;;4898376;29;20168;-78
2023/02/28 11:57:28;;;;;;;6.00;2.83;;;4.50;99.60;;;;;;4897849;29;20275;-78
2023/02/28 12:00:01;;;;;;;4.33;1.80;;;4.70;99.70;;;;;;4898006;29;20199;-78
2023/02/28 12:02:51;;;;;;;3.10;1.67;;;5.00;98.70;;;;;;4897872;29;20273;-78
2023/02/28 12:05:38;;;;;;;5.50;1.60;;;5.00;98.30;;;;;;4881450;29;20179;-78
2023/02/28 12:08:48;;;;;;;4.13;1.53;;;4.90;97.90;;;;;;4898062;29;20187;-78
2023/02/28 12:11:31;;;;;;;2.57;1.60;;;4.80;98.90;;;;;;4865920;29;20203;-78
2023/02/28 12:14:18;;;;;;;2.90;1.50;;;4.70;99.80;;;;;;4897863;29;20174;-77
2023/02/28 12:16:54;;;;;;;3.90;1.80;;;4.70;98.70;;;;;;4899901;29;20200;-78
2023/02/28 12:19:47;;;;;;;3.03;1.30;;;4.90;98.10;;;;;;4900977;29;20171;-78
2023/02/28 12:22:22;;;;;;;3.40;1.53;;;4.90;97.70;;;;;;4900947;29;20199;-78
2023/02/28 12:25:17;;;;;;;5.20;1.70;;;5.10;97.10;;;;;;4884219;29;20179;-77
2023/02/28 12:27:46;;;;;;;2.87;1.67;;;5.20;97.80;;;;;;4900556;29;20334;-77
2023/02/28 12:30:28;;;;;;;2.33;1.67;;;5.20;97.20;;;;;;4900722;29;20203;-78
2023/02/28 12:33:09;;;;;;;2.87;1.47;;;5.20;96.20;;;;;;4900822;29;20211;-79
2023/02/28 12:35:59;;;;;;;3.17;1.90;;;5.20;95.60;;;;;;4900777;29;20207;-78
2023/02/28 12:38:58;;;;;;;2.00;1.60;;;5.20;95.80;;;;;;4875355;29;20294;-78
2023/02/28 12:41:40;;;;;;;3.33;2.00;;;5.40;96.80;;;;;;4873498;29;20263;-77
2023/02/28 12:44:37;;;;;;;2.67;1.80;;;5.40;96.10;;;;;;4882179;29;20180;-78
2023/02/28 12:47:15;;;;;;;4.40;1.87;;;5.40;95.20;;;;;;4865605;29;20570;-78
2023/02/28 12:49:58;;;;;;;2.63;1.57;;;5.30;95.90;;;;;;4882082;29;20570;-78
2023/02/28 12:52:40;;;;;;;2.93;1.40;;;5.30;95.40;;;;;;4882281;29;20166;-78
2023/02/28 12:55:13;;;;;;;4.13;2.43;;;5.30;95.60;;;;;;4882110;29;20207;-78
2023/02/28 12:57:51;;;;;;;3.90;1.90;;;5.50;95.20;;;;;;4892918;29;20688;-84
2023/02/28 13:00:22;;;;;;;3.27;2.20;;;5.50;96.00;;;;;;4900160;29;20182;-79
2023/02/28 13:03:33;;;;;;;4.17;2.30;;;5.50;96.30;;;;;;4900144;29;20571;-79
2023/02/28 13:06:17;;;;;;;4.13;2.07;;;5.50;96.10;;;;;;4900414;29;20167;-79
2023/02/28 13:09:06;;;;;;;5.27;1.70;;;5.60;95.50;;;;;;4900180;29;20223;-79
2023/02/28 13:11:45;;;;;;;2.63;1.63;;;5.70;95.50;;;;;;4900200;29;20176;-79
2023/02/28 13:14:30;;;;;;;4.90;2.73;;;5.70;94.40;;;;;;4900261;29;20211;-79
2023/02/28 13:16:57;;;;;;;2.77;1.70;;;5.60;95.10;;;;;;4900437;29;20508;-79
2023/02/28 13:19:26;;;;;;;3.30;1.87;;;5.90;95.30;;;;;;4900055;29;20195;-79